Time;durP1;ratioP1;P1;durP2;ratioP2;P2;SDS_P1;SDS_P2;PMS_P1;PMS_P2;Temp;Humidity;BMP_temperature;BMP_pressure;BME280_temperature;BME280_humidity;BME280_pressure;Samples;Min_cycle;Max_cycle;Signal;HPM_P1;HPM_P2
2022/03/29 00:02:07;;;;;;;21.73;14.17;;;8.70;99.90;;;;;;5133142;27;20431;-45
2022/03/29 00:04:34;;;;;;;18.20;13.77;;;8.70;99.90;;;;;;5133196;27;20462;-43
2022/03/29 00:07:01;;;;;;;16.67;14.10;;;8.40;99.90;;;;;;5132986;27;20446;-42
2022/03/29 00:09:28;;;;;;;16.90;12.60;;;8.60;99.90;;;;;;5113374;27;20455;-44
2022/03/29 00:11:55;;;;;;;17.60;12.80;;;8.50;99.90;;;;;;5132911;27;20431;-43
2022/03/29 00:14:23;;;;;;;19.37;12.87;;;8.50;99.90;;;;;;5132906;27;20832;-44
2022/03/29 00:16:50;;;;;;;17.47;15.40;;;8.40;99.90;;;;;;5132664;27;20427;-43
2022/03/29 00:19:16;;;;;;;21.57;14.07;;;8.50;99.90;;;;;;5132547;27;20473;-44
2022/03/29 00:21:43;;;;;;;16.80;14.13;;;8.40;99.90;;;;;;5114353;28;20474;-44
2022/03/29 00:24:10;;;;;;;18.37;13.90;;;8.50;99.90;;;;;;5132907;27;20454;-43
2022/03/29 00:26:36;;;;;;;17.80;12.60;;;8.50;99.90;;;;;;5132813;28;20742;-44
2022/03/29 00:29:03;;;;;;;17.73;14.40;;;8.50;99.90;;;;;;5132366;28;20422;-43
2022/03/29 00:31:31;;;;;;;16.23;13.57;;;8.50;99.90;;;;;;5132658;28;20430;-43
2022/03/29 00:33:58;;;;;;;19.17;14.13;;;8.50;99.90;;;;;;5132707;28;20427;-43
2022/03/29 00:36:24;;;;;;;18.40;14.13;;;8.50;99.90;;;;;;5132684;28;20854;-45
2022/03/29 00:38:51;;;;;;;21.63;13.83;;;8.50;99.90;;;;;;5132052;28;20455;-43
2022/03/29 00:41:18;;;;;;;14.83;13.23;;;8.50;99.90;;;;;;5132688;28;20486;-43
2022/03/29 00:43:44;;;;;;;19.03;14.30;;;8.50;99.90;;;;;;5132924;28;20433;-46
2022/03/29 00:46:11;;;;;;;18.80;13.93;;;8.50;99.90;;;;;;5132883;28;20437;-43
2022/03/29 00:48:39;;;;;;;15.30;12.80;;;8.50;99.90;;;;;;5132165;28;20443;-44
2022/03/29 00:51:06;;;;;;;17.10;12.67;;;8.60;99.90;;;;;;5132806;28;20439;-43
2022/03/29 00:53:33;;;;;;;21.13;14.50;;;8.50;99.90;;;;;;5123738;28;20478;-45
2022/03/29 00:56:02;;;;;;;24.07;15.10;;;8.60;99.90;;;;;;5112124;28;20439;-43
2022/03/29 00:58:29;;;;;;;22.63;14.30;;;8.70;99.90;;;;;;5111707;28;20452;-43
2022/03/29 01:00:58;;;;;;;19.97;13.40;;;8.60;99.90;;;;;;5111872;28;20471;-44
2022/03/29 01:03:25;;;;;;;20.30;14.50;;;8.60;99.90;;;;;;5111945;28;20436;-43
2022/03/29 01:05:53;;;;;;;18.20;13.70;;;8.60;99.90;;;;;;5111881;28;20438;-44
2022/03/29 01:08:20;;;;;;;21.23;14.00;;;8.60;99.90;;;;;;5111869;28;20455;-44
2022/03/29 01:10:47;;;;;;;18.50;14.40;;;8.60;99.90;;;;;;5111774;28;20480;-43
2022/03/29 01:13:14;;;;;;;16.30;14.00;;;8.60;99.90;;;;;;5111977;28;20424;-43
2022/03/29 01:15:42;;;;;;;17.50;13.73;;;8.60;99.90;;;;;;5125009;27;20970;-43
2022/03/29 01:18:07;;;;;;;16.97;13.33;;;8.60;99.90;;;;;;5132239;28;20830;-43
2022/03/29 01:20:55;;;;;;;18.87;14.47;;;8.60;99.90;;;;;;5133855;27;20467;-43
2022/03/29 01:23:23;;;;;;;17.30;13.60;;;8.60;99.90;;;;;;5136186;27;20224;-42
2022/03/29 01:25:51;;;;;;;16.67;13.00;;;8.60;99.90;;;;;;5136397;27;20431;-43
2022/03/29 01:28:22;;;;;;;21.50;13.90;;;8.60;99.90;;;;;;5136706;27;20926;-43
2022/03/29 01:30:51;;;;;;;17.13;13.57;;;8.60;99.90;;;;;;5136526;27;20430;-44
2022/03/29 01:33:18;;;;;;;21.57;13.50;;;8.50;99.90;;;;;;5136725;27;20423;-45
2022/03/29 01:35:46;;;;;;;18.27;13.20;;;8.60;99.90;;;;;;5136305;27;20439;-43
2022/03/29 01:38:13;;;;;;;21.97;14.63;;;8.60;99.90;;;;;;5136334;27;20443;-43
2022/03/29 01:40:41;;;;;;;16.47;12.87;;;8.50;99.90;;;;;;5135502;27;20469;-43
2022/03/29 01:43:07;;;;;;;18.40;13.50;;;8.60;99.90;;;;;;5135774;27;20431;-43
2022/03/29 01:45:34;;;;;;;17.47;13.97;;;8.60;99.90;;;;;;5135498;27;20441;-45
2022/03/29 01:48:01;;;;;;;20.53;13.93;;;8.60;99.90;;;;;;5135655;27;20466;-44
2022/03/29 01:50:28;;;;;;;16.70;13.70;;;8.60;99.90;;;;;;5135415;27;20793;-43
2022/03/29 01:52:54;;;;;;;19.90;14.07;;;8.60;99.90;;;;;;5132258;27;20432;-44
2022/03/29 01:55:22;;;;;;;18.20;14.47;;;8.60;99.90;;;;;;5115209;28;20805;-44
2022/03/29 01:57:51;;;;;;;18.30;14.33;;;8.60;99.90;;;;;;5114759;28;20462;-44
2022/03/29 02:00:34;;;;;;;18.97;15.07;;;8.60;99.90;;;;;;5113200;28;20456;-42
2022/03/29 02:03:04;;;;;;;20.30;14.50;;;8.60;99.90;;;;;;5114938;28;20395;-44
2022/03/29 02:05:32;;;;;;;20.40;13.77;;;8.50;99.90;;;;;;5115237;28;20427;-42
2022/03/29 02:07:59;;;;;;;21.27;15.97;;;8.50;99.90;;;;;;5114682;28;21068;-45
2022/03/29 02:10:26;;;;;;;22.67;15.90;;;8.50;99.90;;;;;;5114314;28;20427;-44
2022/03/29 02:12:54;;;;;;;18.83;14.87;;;8.50;99.90;;;;;;5114714;28;20424;-42
2022/03/29 02:15:21;;;;;;;20.33;15.07;;;8.50;99.90;;;;;;5124325;27;20425;-43
2022/03/29 02:17:48;;;;;;;24.13;15.70;;;8.50;99.90;;;;;;5134784;27;20462;-44
2022/03/29 02:20:15;;;;;;;19.23;14.83;;;8.50;99.90;;;;;;5116001;27;20899;-43
2022/03/29 02:22:42;;;;;;;19.20;15.07;;;8.30;99.90;;;;;;5134809;27;20450;-43
2022/03/29 02:25:10;;;;;;;22.80;16.00;;;8.50;99.90;;;;;;5134698;27;20913;-43
2022/03/29 02:27:38;;;;;;;33.90;16.10;;;8.50;99.90;;;;;;5134671;27;21006;-41
2022/03/29 02:30:07;;;;;;;20.43;15.37;;;8.50;99.90;;;;;;5134404;27;20433;-43
2022/03/29 02:32:34;;;;;;;25.30;17.40;;;8.50;99.90;;;;;;5134073;27;20434;-43
2022/03/29 02:35:01;;;;;;;25.67;15.87;;;8.50;99.90;;;;;;5134690;27;20435;-43
2022/03/29 02:37:28;;;;;;;22.77;17.47;;;8.50;99.90;;;;;;5134559;27;20449;-45
2022/03/29 02:39:54;;;;;;;19.20;15.37;;;8.50;99.90;;;;;;5134151;27;20431;-43
2022/03/29 02:42:21;;;;;;;31.43;17.10;;;8.50;99.90;;;;;;5134398;27;20477;-42
2022/03/29 02:44:47;;;;;;;24.87;18.00;;;8.50;99.90;;;;;;5134962;27;20944;-45
2022/03/29 02:47:15;;;;;;;22.90;17.13;;;8.50;99.90;;;;;;5134429;27;20462;-44
2022/03/29 02:49:42;;;;;;;22.93;16.50;;;8.30;99.90;;;;;;5134004;27;20590;-44
2022/03/29 02:52:10;;;;;;;18.27;15.23;;;8.50;99.90;;;;;;5134195;27;20435;-44
2022/03/29 02:54:36;;;;;;;24.30;16.30;;;8.50;99.90;;;;;;5116387;27;20829;-43
2022/03/29 02:57:04;;;;;;;20.83;15.90;;;8.50;99.90;;;;;;5113763;28;20905;-42
2022/03/29 02:59:30;;;;;;;23.50;15.97;;;8.50;99.90;;;;;;5113168;28;20463;-44
2022/03/29 03:01:57;;;;;;;22.43;17.80;;;8.50;99.90;;;;;;5113543;28;20483;-43
2022/03/29 03:04:25;;;;;;;22.60;16.13;;;8.50;99.90;;;;;;5113626;28;20434;-43
2022/03/29 03:06:52;;;;;;;22.40;16.80;;;8.50;99.90;;;;;;5113299;28;20431;-43
2022/03/29 03:09:18;;;;;;;21.00;16.43;;;8.50;99.90;;;;;;5113111;28;20891;-43
2022/03/29 03:11:45;;;;;;;26.23;16.03;;;8.50;99.90;;;;;;5113860;28;20812;-44
2022/03/29 03:14:12;;;;;;;22.10;17.07;;;8.50;99.90;;;;;;5113630;27;20451;-44
2022/03/29 03:16:38;;;;;;;24.87;17.50;;;8.50;99.90;;;;;;5133919;27;20437;-45
2022/03/29 03:19:05;;;;;;;23.57;17.83;;;8.50;99.90;;;;;;5133605;27;20803;-44
2022/03/29 03:21:33;;;;;;;22.40;17.33;;;8.50;99.90;;;;;;5133675;27;20884;-42
2022/03/29 03:23:59;;;;;;;25.03;17.73;;;8.50;99.90;;;;;;5133861;27;20767;-43
2022/03/29 03:26:26;;;;;;;23.60;18.30;;;8.50;99.90;;;;;;5133453;27;20427;-43
2022/03/29 03:28:53;;;;;;;25.23;17.10;;;8.40;99.90;;;;;;5133220;27;20542;-44
2022/03/29 03:31:19;;;;;;;22.40;16.67;;;8.40;99.90;;;;;;5133784;27;20438;-43
2022/03/29 03:33:46;;;;;;;24.10;18.20;;;8.40;99.90;;;;;;5133422;27;20423;-44
2022/03/29 03:36:12;;;;;;;22.30;18.40;;;8.40;99.90;;;;;;5133473;27;20441;-42
2022/03/29 03:38:40;;;;;;;24.83;18.70;;;8.40;99.90;;;;;;5132993;27;20456;-43
2022/03/29 03:41:07;;;;;;;28.43;18.67;;;8.40;99.90;;;;;;5133346;27;20488;-46
2022/03/29 03:43:33;;;;;;;21.43;16.80;;;8.40;99.90;;;;;;5133192;27;20429;-44
2022/03/29 03:46:00;;;;;;;26.67;18.10;;;8.50;99.90;;;;;;5133440;27;20956;-43
2022/03/29 03:48:27;;;;;;;25.93;17.60;;;8.30;99.90;;;;;;5132908;27;20850;-44
2022/03/29 03:50:54;;;;;;;25.77;17.60;;;8.30;99.90;;;;;;5133068;27;20441;-44
2022/03/29 03:53:20;;;;;;;27.47;19.47;;;8.40;99.90;;;;;;5126211;27;20436;-44
2022/03/29 03:55:48;;;;;;;24.80;18.10;;;8.40;99.90;;;;;;5112644;28;20446;-41
2022/03/29 03:58:16;;;;;;;26.07;18.23;;;8.20;99.90;;;;;;5111133;28;20924;-42
2022/03/29 04:00:43;;;;;;;22.50;17.80;;;8.30;99.90;;;;;;5111680;28;20446;-43
2022/03/29 04:03:10;;;;;;;24.63;18.23;;;8.30;99.90;;;;;;5112383;28;20439;-42
2022/03/29 04:05:38;;;;;;;26.23;17.83;;;8.30;99.90;;;;;;5112366;28;20439;-43
2022/03/29 04:08:05;;;;;;;28.80;19.30;;;8.30;99.90;;;;;;5112434;28;20491;-42
2022/03/29 04:10:33;;;;;;;25.97;20.30;;;8.30;99.90;;;;;;5112120;28;20944;-43
2022/03/29 04:13:02;;;;;;;25.10;19.30;;;8.20;99.90;;;;;;5112357;28;20526;-44
2022/03/29 04:15:29;;;;;;;32.03;21.43;;;8.20;99.90;;;;;;5123497;27;20533;-43
2022/03/29 04:17:56;;;;;;;28.27;19.50;;;8.20;99.90;;;;;;5132748;27;20475;-43
2022/03/29 04:20:23;;;;;;;26.37;19.60;;;8.20;99.90;;;;;;5132532;27;20481;-43
2022/03/29 04:22:49;;;;;;;25.20;19.47;;;8.20;99.90;;;;;;5132904;27;20983;-44
2022/03/29 04:25:16;;;;;;;29.30;20.57;;;8.20;99.90;;;;;;5132834;27;20431;-45
2022/03/29 04:27:42;;;;;;;26.97;19.40;;;8.20;99.90;;;;;;5132669;28;20848;-44
2022/03/29 04:30:12;;;;;;;31.60;20.00;;;8.20;99.90;;;;;;5132733;28;20429;-43
2022/03/29 04:32:39;;;;;;;27.10;19.37;;;8.20;99.90;;;;;;5132990;28;20438;-43
2022/03/29 04:35:07;;;;;;;30.60;21.87;;;8.20;99.90;;;;;;5132964;28;20435;-42
2022/03/29 04:37:33;;;;;;;28.17;18.63;;;8.20;99.90;;;;;;5132710;28;20458;-43
2022/03/29 04:40:00;;;;;;;26.77;18.37;;;8.20;99.90;;;;;;5133117;28;20498;-42
2022/03/29 04:42:27;;;;;;;25.80;19.13;;;8.30;99.90;;;;;;5133068;28;20466;-44
2022/03/29 04:44:54;;;;;;;27.93;20.40;;;8.30;99.90;;;;;;5133120;28;20436;-44
2022/03/29 04:47:22;;;;;;;26.90;19.93;;;8.30;99.90;;;;;;5132853;28;20458;-43
2022/03/29 04:49:48;;;;;;;30.70;21.83;;;8.30;99.90;;;;;;5132668;28;20446;-43
2022/03/29 04:52:15;;;;;;;25.17;18.30;;;8.20;99.90;;;;;;5133191;28;20471;-43
2022/03/29 04:54:41;;;;;;;32.47;19.80;;;8.30;99.90;;;;;;5115485;28;20442;-43
2022/03/29 04:57:08;;;;;;;27.03;20.83;;;8.20;99.90;;;;;;5116524;28;20498;-42
2022/03/29 04:59:35;;;;;;;30.67;21.00;;;8.30;99.90;;;;;;5115840;28;20478;-46
2022/03/29 05:02:01;;;;;;;26.50;19.30;;;8.20;99.90;;;;;;5116276;28;20874;-44
2022/03/29 05:04:29;;;;;;;27.43;20.27;;;8.20;99.90;;;;;;5115990;28;20438;-43
2022/03/29 05:06:56;;;;;;;29.90;20.23;;;8.20;99.90;;;;;;5116256;28;20466;-42
2022/03/29 05:09:23;;;;;;;27.50;19.83;;;8.20;99.90;;;;;;5115873;28;20430;-44
2022/03/29 05:11:49;;;;;;;33.43;20.57;;;8.20;99.90;;;;;;5115758;28;20474;-43
2022/03/29 05:14:16;;;;;;;26.13;18.73;;;8.20;99.90;;;;;;5116898;27;20438;-42
2022/03/29 05:16:43;;;;;;;28.40;20.50;;;8.20;99.90;;;;;;5117957;27;20941;-43
2022/03/29 05:19:09;;;;;;;31.30;21.20;;;8.10;99.90;;;;;;5155108;22;20497;-48
2022/03/29 05:21:37;;;;;;;25.40;19.00;;;8.10;99.90;;;;;;5135165;27;20461;-48
2022/03/29 05:24:05;;;;;;;26.20;19.10;;;8.00;99.90;;;;;;5134940;27;20434;-48
2022/03/29 05:26:32;;;;;;;26.67;19.90;;;8.10;99.90;;;;;;5134489;27;20463;-49
2022/03/29 05:28:58;;;;;;;30.67;20.00;;;8.10;99.90;;;;;;5134799;27;20453;-49
2022/03/29 05:31:25;;;;;;;26.90;19.03;;;8.00;99.90;;;;;;5134693;27;20404;-49
2022/03/29 05:33:51;;;;;;;31.17;19.73;;;8.10;99.90;;;;;;5134445;27;20437;-48
2022/03/29 05:36:18;;;;;;;25.13;18.50;;;8.10;99.90;;;;;;5134778;27;20445;-49
2022/03/29 05:38:50;;;;;;;30.10;20.37;;;8.10;99.90;;;;;;5134001;27;20522;-49
2022/03/29 05:41:19;;;;;;;35.57;21.37;;;8.10;99.90;;;;;;5134270;27;20796;-49
2022/03/29 05:43:47;;;;;;;33.83;21.53;;;8.10;99.90;;;;;;5134168;27;20415;-50
2022/03/29 05:48:59;;;;;;;30.10;20.47;;;8.00;99.90;;;;;;5134609;27;20566;-49
2022/03/29 05:51:28;;;;;;;32.10;21.53;;;8.10;99.90;;;;;;5134512;27;20446;-49
2022/03/29 05:53:57;;;;;;;30.50;20.40;;;8.10;99.90;;;;;;5133933;27;20435;-48
2022/03/29 05:56:24;;;;;;;28.77;21.47;;;8.10;99.90;;;;;;5134091;27;20525;-49
2022/03/29 05:58:51;;;;;;;38.30;20.63;;;8.10;99.90;;;;;;5133570;27;20454;-48
2022/03/29 06:01:18;;;;;;;27.97;21.13;;;8.20;99.90;;;;;;5134168;27;20425;-49
2022/03/29 06:03:45;;;;;;;29.90;20.57;;;7.90;99.90;;;;;;5134060;27;20553;-49
2022/03/29 06:06:13;;;;;;;38.73;20.53;;;8.30;99.90;;;;;;5132913;27;20493;-49
2022/03/29 06:08:40;;;;;;;32.57;20.33;;;8.20;99.90;;;;;;5133609;27;20531;-49
2022/03/29 06:11:08;;;;;;;32.13;20.97;;;8.20;99.90;;;;;;5134486;27;20490;-48
2022/03/29 06:13:35;;;;;;;31.43;20.57;;;8.20;99.90;;;;;;5134127;27;20433;-48
2022/03/29 06:16:02;;;;;;;34.43;22.23;;;8.30;99.90;;;;;;5115387;27;20462;-50
2022/03/29 06:18:30;;;;;;;38.10;22.77;;;8.20;99.90;;;;;;5133541;27;20460;-47
2022/03/29 06:20:57;;;;;;;45.47;23.37;;;8.20;99.90;;;;;;5133902;27;20437;-47
2022/03/29 06:23:24;;;;;;;30.93;21.70;;;8.20;99.90;;;;;;5134035;27;20832;-50
2022/03/29 06:25:51;;;;;;;31.37;22.63;;;8.30;99.90;;;;;;5133914;27;20435;-49
2022/03/29 06:28:19;;;;;;;33.67;22.13;;;8.30;99.90;;;;;;5134031;27;20949;-49
2022/03/29 06:30:46;;;;;;;42.70;23.23;;;8.30;99.90;;;;;;5133691;27;20423;-48
2022/03/29 06:33:12;;;;;;;33.07;23.40;;;8.30;99.90;;;;;;5133658;27;20491;-49
2022/03/29 06:35:39;;;;;;;29.47;22.20;;;8.40;99.90;;;;;;5133847;27;20461;-49
2022/03/29 06:38:07;;;;;;;42.87;22.67;;;8.40;99.90;;;;;;5133653;27;20457;-49
2022/03/29 06:40:34;;;;;;;29.47;20.20;;;8.40;99.90;;;;;;5133860;27;20781;-49
2022/03/29 06:43:01;;;;;;;34.77;22.07;;;8.50;99.90;;;;;;5133508;27;20971;-48
2022/03/29 06:45:30;;;;;;;37.93;22.80;;;8.50;99.90;;;;;;5133375;27;20438;-49
2022/03/29 06:47:58;;;;;;;47.03;28.60;;;8.60;99.90;;;;;;5133267;27;20466;-49
2022/03/29 06:50:25;;;;;;;40.53;21.87;;;8.70;99.90;;;;;;5133355;27;20405;-49
2022/03/29 06:52:51;;;;;;;38.10;21.83;;;8.70;99.90;;;;;;5130572;27;20609;-50
2022/03/29 06:55:19;;;;;;;30.77;19.90;;;8.80;99.90;;;;;;5113095;28;20437;-49
2022/03/29 06:57:46;;;;;;;31.90;20.77;;;8.80;99.90;;;;;;5111055;28;20480;-50
2022/03/29 07:00:13;;;;;;;36.27;23.07;;;8.90;99.90;;;;;;5112551;28;20431;-48
2022/03/29 07:02:41;;;;;;;34.17;21.60;;;8.90;99.90;;;;;;5112607;28;20475;-49
2022/03/29 07:05:09;;;;;;;29.10;19.50;;;9.00;99.90;;;;;;5112657;28;20822;-49
2022/03/29 07:07:36;;;;;;;31.80;21.90;;;9.10;99.90;;;;;;5094261;28;21063;-49
2022/03/29 07:12:58;;;;;;;38.37;24.10;;;9.20;99.90;;;;;;5069917;28;20939;-49
2022/03/29 07:15:25;;;;;;;41.13;25.00;;;9.30;99.90;;;;;;5123162;27;20427;-50
2022/03/29 07:17:54;;;;;;;35.70;22.83;;;9.40;99.90;;;;;;5132154;27;20499;-49
2022/03/29 07:20:21;;;;;;;32.67;20.50;;;9.50;99.90;;;;;;5132250;27;20496;-49
2022/03/29 07:22:49;;;;;;;28.53;19.07;;;9.40;99.90;;;;;;5132548;27;20470;-49
2022/03/29 07:25:18;;;;;;;25.97;17.40;;;10.90;99.90;;;;;;5114396;27;20546;-52
2022/03/29 07:27:45;;;;;;;36.17;20.90;;;9.50;99.90;;;;;;5132678;27;20463;-50
2022/03/29 07:30:12;;;;;;;27.73;16.40;;;9.50;99.30;;;;;;5132121;27;20933;-49
2022/03/29 07:32:47;;;;;;;28.37;16.80;;;9.50;99.30;;;;;;5132318;27;20436;-49
2022/03/29 07:35:16;;;;;;;25.60;17.27;;;9.50;98.70;;;;;;5132127;27;20455;-49
2022/03/29 07:37:43;;;;;;;23.47;16.17;;;9.60;98.60;;;;;;5132267;27;20451;-49
2022/03/29 07:40:12;;;;;;;24.20;15.10;;;9.60;98.10;;;;;;5132024;27;20422;-49
2022/03/29 07:42:39;;;;;;;23.27;15.57;;;9.60;97.80;;;;;;5113629;27;20954;-50
2022/03/29 07:45:07;;;;;;;28.23;16.80;;;9.60;97.60;;;;;;5132354;27;20514;-48
2022/03/29 07:47:34;;;;;;;25.97;16.73;;;9.70;97.50;;;;;;5132617;27;20457;-49
2022/03/29 07:50:06;;;;;;;27.37;17.10;;;9.80;97.20;;;;;;5131945;27;20435;-49
2022/03/29 07:52:34;;;;;;;19.70;14.87;;;9.80;96.90;;;;;;5132078;27;20484;-49
2022/03/29 07:55:01;;;;;;;23.47;16.07;;;10.00;96.30;;;;;;5111703;28;20435;-49
2022/03/29 07:57:27;;;;;;;23.87;15.13;;;10.00;95.80;;;;;;5111086;28;20820;-49
2022/03/29 07:59:54;;;;;;;25.10;16.10;;;10.10;95.80;;;;;;5111174;28;20760;-50
2022/03/29 08:02:20;;;;;;;22.50;16.37;;;10.20;95.10;;;;;;5111180;28;20476;-49
2022/03/29 08:04:47;;;;;;;26.03;15.67;;;10.20;95.00;;;;;;5109863;28;20451;-50
2022/03/29 08:07:14;;;;;;;21.47;14.70;;;10.20;95.10;;;;;;5111750;28;20428;-48
2022/03/29 08:09:42;;;;;;;24.70;15.30;;;10.30;95.00;;;;;;5109756;28;20452;-49
2022/03/29 08:12:09;;;;;;;21.37;14.97;;;10.30;94.40;;;;;;5111582;28;20432;-49
2022/03/29 08:14:38;;;;;;;24.43;15.10;;;10.30;93.90;;;;;;5114983;27;20443;-53
2022/03/29 08:17:05;;;;;;;21.60;12.43;;;10.30;93.40;;;;;;5132035;27;20833;-49
2022/03/29 08:19:31;;;;;;;24.07;13.17;;;10.20;93.50;;;;;;5131311;27;20890;-50
2022/03/29 08:21:58;;;;;;;21.33;13.60;;;10.20;93.30;;;;;;5131825;27;20485;-48
2022/03/29 08:24:25;;;;;;;21.33;12.30;;;10.20;93.00;;;;;;5131919;27;20409;-49
2022/03/29 08:26:55;;;;;;;21.07;12.73;;;10.20;93.30;;;;;;5131955;27;20525;-48
2022/03/29 08:29:22;;;;;;;18.53;12.60;;;10.20;92.60;;;;;;5130648;27;20455;-49
2022/03/29 08:31:52;;;;;;;18.97;11.80;;;10.20;92.70;;;;;;5131470;28;20450;-48
2022/03/29 08:34:19;;;;;;;19.83;13.53;;;10.10;92.60;;;;;;5131715;28;20810;-47
2022/03/29 08:36:49;;;;;;;26.37;13.63;;;10.20;92.70;;;;;;5131804;28;20864;-48
2022/03/29 08:39:16;;;;;;;18.63;12.43;;;10.20;92.70;;;;;;5131233;28;20461;-48
2022/03/29 08:41:46;;;;;;;27.70;14.27;;;10.20;92.60;;;;;;5131937;28;20525;-49
2022/03/29 08:44:14;;;;;;;16.80;11.67;;;10.20;92.60;;;;;;5131398;28;20510;-48
2022/03/29 08:46:42;;;;;;;18.70;12.10;;;10.10;92.30;;;;;;5112629;28;20458;-49
2022/03/29 08:49:10;;;;;;;23.00;13.20;;;10.20;92.30;;;;;;5130084;28;20462;-49
2022/03/29 08:51:37;;;;;;;17.73;12.93;;;10.20;92.00;;;;;;5131308;28;20935;-49
2022/03/29 08:54:05;;;;;;;16.97;12.60;;;10.30;92.00;;;;;;5118318;28;20805;-49
2022/03/29 08:56:32;;;;;;;23.13;13.77;;;10.40;91.90;;;;;;5110718;28;20446;-48
2022/03/29 08:58:59;;;;;;;19.60;12.33;;;10.50;91.80;;;;;;5110289;28;20458;-48
2022/03/29 09:01:27;;;;;;;17.70;11.67;;;10.50;91.20;;;;;;5110844;28;20428;-49
2022/03/29 09:04:05;;;;;;;19.77;12.50;;;10.40;90.50;;;;;;5111266;28;20856;-48
2022/03/29 09:06:31;;;;;;;18.33;12.33;;;10.30;90.20;;;;;;5111026;28;20442;-49
2022/03/29 09:08:58;;;;;;;20.07;12.07;;;10.20;90.40;;;;;;5109908;28;20471;-48
2022/03/29 09:11:25;;;;;;;17.67;12.53;;;10.10;90.50;;;;;;5110792;28;20424;-49
2022/03/29 09:14:02;;;;;;;18.57;11.63;;;10.10;90.50;;;;;;5110623;28;20435;-48
2022/03/29 09:16:33;;;;;;;20.00;12.50;;;10.10;90.60;;;;;;5130137;27;20443;-49
2022/03/29 09:19:00;;;;;;;20.87;13.33;;;10.10;90.80;;;;;;5130750;28;20463;-49
2022/03/29 09:21:28;;;;;;;22.60;13.67;;;10.20;91.00;;;;;;5131253;28;20510;-49
2022/03/29 09:24:09;;;;;;;17.73;12.33;;;10.20;91.00;;;;;;5130829;28;20559;-48
2022/03/29 09:26:39;;;;;;;19.97;13.07;;;10.20;90.40;;;;;;5131101;28;20877;-48
2022/03/29 09:29:13;;;;;;;23.03;13.47;;;10.20;90.60;;;;;;5130641;28;20450;-48
2022/03/29 09:31:42;;;;;;;24.83;13.73;;;10.20;90.20;;;;;;5131168;28;20433;-49
2022/03/29 09:34:14;;;;;;;21.10;13.60;;;10.20;90.50;;;;;;5120935;27;20459;-48
2022/03/29 09:36:43;;;;;;;23.40;13.70;;;10.20;90.80;;;;;;5113991;28;20995;-48
2022/03/29 09:39:29;;;;;;;28.20;13.53;;;10.20;90.90;;;;;;5130804;28;20463;-49
2022/03/29 09:41:58;;;;;;;17.10;13.47;;;10.30;91.10;;;;;;5102818;28;20465;-49
2022/03/29 09:44:39;;;;;;;23.50;13.23;;;10.30;89.50;;;;;;5095621;28;20483;-49
2022/03/29 09:47:08;;;;;;;23.57;15.47;;;10.30;90.00;;;;;;5114403;28;20485;-49
2022/03/29 09:49:50;;;;;;;23.27;14.57;;;10.30;89.50;;;;;;5118165;27;20488;-49
2022/03/29 09:52:18;;;;;;;21.60;13.70;;;10.40;89.90;;;;;;5134547;27;20431;-48
2022/03/29 09:55:06;;;;;;;18.07;13.40;;;10.50;89.60;;;;;;5115714;27;20927;-48
2022/03/29 09:57:37;;;;;;;21.33;14.40;;;10.60;89.10;;;;;;5113422;28;20444;-49
2022/03/29 10:00:05;;;;;;;19.50;14.70;;;10.60;88.80;;;;;;5113606;28;20920;-48
2022/03/29 10:02:45;;;;;;;26.37;15.80;;;10.70;88.50;;;;;;5113429;28;20412;-48
2022/03/29 10:05:13;;;;;;;22.43;16.40;;;10.80;88.10;;;;;;5113993;28;20428;-49
2022/03/29 10:07:44;;;;;;;24.23;14.80;;;10.70;87.80;;;;;;5126267;27;20482;-49
2022/03/29 10:10:12;;;;;;;21.33;15.53;;;10.80;87.90;;;;;;5133682;27;20435;-48
2022/03/29 10:12:39;;;;;;;19.47;15.40;;;10.80;87.70;;;;;;5134384;27;20805;-49
2022/03/29 10:15:09;;;;;;;22.90;15.57;;;10.80;88.10;;;;;;5134099;27;20510;-48
2022/03/29 10:17:36;;;;;;;19.50;15.37;;;10.90;87.30;;;;;;5133761;27;20475;-49
2022/03/29 10:20:06;;;;;;;20.10;12.97;;;10.90;87.30;;;;;;5133454;27;20427;-49
2022/03/29 10:22:35;;;;;;;15.43;11.13;;;10.90;83.40;;;;;;5133780;27;20936;-49
2022/03/29 10:25:02;;;;;;;22.50;15.87;;;10.90;80.00;;;;;;5133888;27;20474;-49
2022/03/29 10:27:29;;;;;;;21.27;14.40;;;10.80;79.60;;;;;;5114971;27;20515;-50
2022/03/29 10:29:56;;;;;;;18.37;12.37;;;10.80;80.70;;;;;;5133067;27;20423;-47
2022/03/29 10:32:32;;;;;;;23.27;12.30;;;10.80;80.50;;;;;;5133328;27;20899;-49
2022/03/29 10:35:07;;;;;;;17.03;11.83;;;10.80;81.20;;;;;;5133167;27;20431;-49
2022/03/29 10:37:55;;;;;;;18.23;12.60;;;10.80;80.20;;;;;;5134083;27;20585;-48
2022/03/29 10:40:37;;;;;;;15.80;11.53;;;10.80;78.50;;;;;;5132356;27;20931;-49
2022/03/29 10:43:26;;;;;;;12.90;10.07;;;10.90;78.10;;;;;;5112650;28;20513;-49
2022/03/29 10:45:53;;;;;;;14.60;10.23;;;11.30;76.40;;;;;;5112639;28;20417;-49
2022/03/29 10:48:20;;;;;;;13.77;10.90;;;10.90;76.40;;;;;;5112711;28;20971;-48
2022/03/29 10:50:57;;;;;;;14.30;10.83;;;10.80;75.20;;;;;;5112476;28;20432;-50
2022/03/29 10:53:24;;;;;;;13.47;10.43;;;10.90;75.50;;;;;;5119154;27;20431;-48
2022/03/29 10:56:20;;;;;;;14.50;11.77;;;10.90;76.90;;;;;;5133027;27;20768;-49
2022/03/29 10:59:14;;;;;;;17.80;11.57;;;10.90;76.90;;;;;;5114255;27;20815;-48
2022/03/29 11:01:42;;;;;;;17.53;13.50;;;11.00;77.40;;;;;;5110530;27;20447;-49
2022/03/29 11:04:16;;;;;;;18.20;13.27;;;11.00;77.90;;;;;;5132695;27;20870;-48
2022/03/29 11:07:14;;;;;;;17.27;13.37;;;11.00;78.50;;;;;;5133328;27;20431;-50
2022/03/29 11:09:44;;;;;;;16.57;13.23;;;11.10;78.90;;;;;;5132921;27;20448;-48
2022/03/29 11:12:37;;;;;;;18.33;13.00;;;11.30;79.30;;;;;;5132539;27;20459;-49
2022/03/29 11:15:40;;;;;;;18.87;12.20;;;11.30;78.70;;;;;;5131457;27;20934;-49
2022/03/29 11:18:38;;;;;;;18.27;11.67;;;11.50;77.30;;;;;;5151022;22;20585;-45
2022/03/29 11:21:06;;;;;;;19.73;11.07;;;11.60;77.30;;;;;;5133363;27;20431;-45
2022/03/29 11:23:35;;;;;;;12.20;10.90;;;11.60;75.50;;;;;;5134179;27;20471;-45
2022/03/29 11:26:08;;;;;;;14.20;10.40;;;11.60;74.10;;;;;;5134428;27;20466;-45
2022/03/29 11:28:35;;;;;;;13.90;8.30;;;11.60;74.10;;;;;;5133961;27;20448;-45
2022/03/29 11:31:02;;;;;;;11.20;8.10;;;11.50;72.60;;;;;;5133906;27;20398;-45
2022/03/29 11:33:35;;;;;;;13.97;8.40;;;11.60;68.70;;;;;;5133927;27;20459;-45
2022/03/29 11:36:06;;;;;;;12.17;9.20;;;11.70;69.60;;;;;;5133939;27;20458;-44
2022/03/29 11:38:36;;;;;;;18.53;9.20;;;11.70;68.10;;;;;;5134024;27;20850;-45
2022/03/29 11:41:03;;;;;;;16.03;10.00;;;11.60;68.40;;;;;;5134218;27;20878;-45
2022/03/29 11:43:30;;;;;;;19.97;8.73;;;11.60;69.10;;;;;;5133457;27;20460;-45
2022/03/29 11:45:57;;;;;;;8.23;5.23;;;11.60;68.70;;;;;;5133686;27;20427;-44
2022/03/29 11:48:26;;;;;;;8.20;5.80;;;11.50;63.90;;;;;;5130870;27;20447;-44
2022/03/29 11:50:55;;;;;;;10.60;6.93;;;11.60;64.10;;;;;;5131121;27;20429;-45
2022/03/29 11:53:23;;;;;;;9.20;4.70;;;11.60;64.70;;;;;;5125574;27;20537;-45
2022/03/29 11:55:56;;;;;;;9.07;5.00;;;11.60;61.40;;;;;;5128676;27;20433;-44
2022/03/29 11:58:23;;;;;;;9.97;4.60;;;11.70;61.90;;;;;;5120357;27;20458;-45
2022/03/29 12:00:50;;;;;;;8.20;4.60;;;11.60;61.90;;;;;;5145700;27;20443;-45
2022/03/29 12:03:27;;;;;;;8.73;4.50;;;11.70;63.10;;;;;;5132990;27;20411;-44
2022/03/29 12:06:06;;;;;;;8.90;3.90;;;11.70;59.80;;;;;;5149212;27;20775;-44
2022/03/29 12:08:46;;;;;;;5.80;3.80;;;11.70;58.90;;;;;;5122935;27;20454;-45
2022/03/29 12:11:15;;;;;;;8.47;4.60;;;11.70;58.60;;;;;;5142017;27;20435;-45
2022/03/29 12:13:43;;;;;;;11.83;4.60;;;11.70;59.80;;;;;;5147775;27;20434;-46
2022/03/29 12:16:21;;;;;;;6.40;4.10;;;11.70;59.70;;;;;;5136134;27;20479;-45
2022/03/29 12:18:49;;;;;;;8.13;4.40;;;11.70;59.20;;;;;;5144996;27;20463;-44
2022/03/29 12:21:18;;;;;;;7.17;3.80;;;11.70;59.00;;;;;;5143949;27;20471;-44
2022/03/29 12:23:46;;;;;;;5.93;3.70;;;11.50;57.60;;;;;;5137049;27;20521;-44
2022/03/29 12:26:17;;;;;;;10.30;4.17;;;11.70;58.50;;;;;;5149872;27;20446;-45
2022/03/29 12:28:45;;;;;;;10.10;4.17;;;11.70;58.40;;;;;;5139746;27;20473;-46
2022/03/29 12:31:13;;;;;;;28.73;5.60;;;11.80;58.50;;;;;;5120331;27;20540;-44
2022/03/29 12:33:40;;;;;;;8.47;3.23;;;11.90;58.40;;;;;;5127138;27;20532;-45
2022/03/29 12:36:10;;;;;;;8.48;3.80;;;11.80;57.70;;;;;;5131655;28;20429;-45
2022/03/29 12:38:45;;;;;;;11.13;3.57;;;12.20;57.10;;;;;;5137801;27;20225;-44
2022/03/29 12:41:15;;;;;;;7.27;3.40;;;11.90;56.90;;;;;;5115636;28;20459;-43
2022/03/29 12:43:52;;;;;;;11.77;4.70;;;11.90;57.10;;;;;;5126741;28;20482;-46
2022/03/29 12:46:19;;;;;;;13.43;4.47;;;11.90;57.50;;;;;;5118999;27;20426;-44
2022/03/29 12:48:48;;;;;;;9.00;2.60;;;11.90;57.10;;;;;;5145144;27;20467;-45
2022/03/29 12:51:15;;;;;;;6.97;3.00;;;11.90;56.80;;;;;;5143153;27;20439;-44